Time;durP1;ratioP1;P1;durP2;ratioP2;P2;SDS_P1;SDS_P2;PMS_P1;PMS_P2;Temp;Humidity;BMP_temperature;BMP_pressure;BME280_temperature;BME280_humidity;BME280_pressure;Samples;Min_cycle;Max_cycle;Signal;HPM_P1;HPM_P2
2022/12/08 00:01:20;;;;;;;6.22;5.63;;;14.70;61.70;;;;;;4987958;28;20050;-32
2022/12/08 00:03:46;;;;;;;6.15;5.57;;;14.70;61.60;;;;;;4990185;28;20049;-31
2022/12/08 00:09:20;;;;;;;5.95;5.55;;;14.70;61.70;;;;;;4979219;28;20053;-37
2022/12/08 00:11:47;;;;;;;6.30;5.80;;;14.70;61.70;;;;;;5001097;28;20042;-33
2022/12/08 00:14:13;;;;;;;6.57;6.07;;;14.70;61.70;;;;;;4991242;28;20042;-32
2022/12/08 00:16:39;;;;;;;6.55;5.95;;;14.70;61.70;;;;;;4988406;28;20072;-33
2022/12/08 00:19:04;;;;;;;7.05;6.53;;;14.70;61.70;;;;;;4989379;28;20053;-34
2022/12/08 00:21:30;;;;;;;5.72;5.32;;;14.60;61.80;;;;;;4989775;28;20042;-31
2022/12/08 00:23:55;;;;;;;5.78;5.38;;;14.70;61.70;;;;;;4989497;28;20123;-33
2022/12/08 00:26:21;;;;;;;6.80;6.30;;;14.70;61.60;;;;;;4989951;28;20058;-32
2022/12/08 00:28:47;;;;;;;6.93;6.32;;;14.70;61.70;;;;;;4988763;28;20041;-34
2022/12/08 00:31:12;;;;;;;5.93;5.53;;;14.70;61.60;;;;;;4990920;28;20049;-31
2022/12/08 00:33:38;;;;;;;6.25;5.75;;;14.70;61.50;;;;;;4989306;28;20538;-34
2022/12/08 00:36:08;;;;;;;6.78;6.28;;;14.70;61.50;;;;;;4989872;28;20046;-32
2022/12/08 00:38:34;;;;;;;6.60;6.00;;;14.70;61.60;;;;;;4986513;28;20069;-31
2022/12/08 00:41:00;;;;;;;5.80;5.40;;;14.70;61.50;;;;;;4984829;28;20036;-32
2022/12/08 00:43:26;;;;;;;5.72;5.32;;;14.70;61.50;;;;;;4987959;28;20042;-32
2022/12/08 00:45:51;;;;;;;6.13;5.63;;;14.70;61.60;;;;;;4988785;28;20038;-33
2022/12/08 00:48:17;;;;;;;5.88;5.35;;;14.70;61.60;;;;;;4988996;28;20129;-32
2022/12/08 00:50:42;;;;;;;5.63;5.22;;;14.70;61.60;;;;;;4987547;28;20042;-32
2022/12/08 00:53:08;;;;;;;5.47;5.07;;;14.70;61.70;;;;;;4990558;28;20596;-34
2022/12/08 00:55:33;;;;;;;6.20;5.68;;;14.70;61.70;;;;;;4987718;28;20034;-35
2022/12/08 00:57:59;;;;;;;6.10;5.60;;;14.70;61.70;;;;;;4987061;28;20050;-32
2022/12/08 01:00:24;;;;;;;5.22;4.93;;;14.60;61.50;;;;;;4986715;28;20042;-30
2022/12/08 01:02:50;;;;;;;5.88;5.47;;;14.70;61.60;;;;;;4988026;28;20038;-36
2022/12/08 01:05:16;;;;;;;5.43;5.03;;;14.60;61.60;;;;;;4990658;28;20132;-36
2022/12/08 01:07:41;;;;;;;5.50;5.10;;;14.60;61.50;;;;;;4989456;28;20078;-34
2022/12/08 01:10:07;;;;;;;5.28;4.88;;;14.70;61.50;;;;;;4989594;28;20065;-34
2022/12/08 01:12:33;;;;;;;6.10;5.50;;;14.60;61.40;;;;;;4988895;28;20046;-36
2022/12/08 01:14:58;;;;;;;5.13;4.82;;;14.60;61.40;;;;;;4989974;28;20125;-33
2022/12/08 01:17:24;;;;;;;4.80;4.50;;;14.70;61.60;;;;;;4985805;28;20463;-32
2022/12/08 01:19:50;;;;;;;5.43;5.03;;;14.60;61.50;;;;;;4999467;28;20030;-34
2022/12/08 01:22:15;;;;;;;6.20;5.70;;;14.60;61.60;;;;;;4989818;28;20042;-31
2022/12/08 01:24:41;;;;;;;5.53;5.13;;;14.60;61.40;;;;;;4987330;28;20086;-31
2022/12/08 01:27:06;;;;;;;5.95;5.55;;;14.70;61.40;;;;;;4989979;28;20531;-30
2022/12/08 01:29:33;;;;;;;5.88;5.47;;;14.70;61.40;;;;;;4989673;28;20050;-33
2022/12/08 01:31:58;;;;;;;5.60;5.20;;;14.70;61.40;;;;;;4989146;28;20113;-33
2022/12/08 01:34:24;;;;;;;5.75;5.28;;;14.70;61.50;;;;;;4986409;28;20035;-33
2022/12/08 01:36:50;;;;;;;5.10;4.80;;;14.70;61.40;;;;;;4988245;28;20066;-35
2022/12/08 01:39:16;;;;;;;4.82;4.50;;;14.70;61.50;;;;;;4988820;28;20140;-34
2022/12/08 01:41:42;;;;;;;5.20;4.80;;;14.70;61.30;;;;;;4988522;28;20152;-34
2022/12/08 01:44:09;;;;;;;5.93;5.53;;;14.70;61.30;;;;;;4985840;28;20096;-33
2022/12/08 01:46:44;;;;;;;4.93;4.63;;;14.70;61.30;;;;;;4986392;28;20057;-31
2022/12/08 01:49:14;;;;;;;6.05;5.65;;;14.60;61.40;;;;;;4987881;28;20050;-32
2022/12/08 01:51:50;;;;;;;5.35;5.05;;;14.60;61.50;;;;;;4987623;28;20037;-33
2022/12/08 01:54:16;;;;;;;5.22;4.82;;;14.60;61.40;;;;;;4983753;28;20035;-30
2022/12/08 01:57:03;;;;;;;5.22;4.82;;;14.60;61.40;;;;;;4987221;28;20058;-35
2022/12/08 01:59:28;;;;;;;5.28;4.88;;;14.60;61.40;;;;;;4985542;28;20044;-37
2022/12/08 02:01:54;;;;;;;5.22;4.82;;;14.60;61.40;;;;;;4985961;28;20129;-35
2022/12/08 02:04:20;;;;;;;5.45;5.13;;;14.60;61.50;;;;;;4988403;28;20046;-35
2022/12/08 02:06:45;;;;;;;5.40;5.03;;;14.60;61.40;;;;;;4988018;28;20318;-34
2022/12/08 02:09:11;;;;;;;5.20;4.90;;;14.60;61.40;;;;;;4982739;28;20034;-35
2022/12/08 02:11:36;;;;;;;5.47;5.07;;;14.50;61.40;;;;;;4984125;28;20046;-32
2022/12/08 02:14:03;;;;;;;5.63;5.10;;;14.60;61.40;;;;;;4989914;28;20411;-34
2022/12/08 02:16:34;;;;;;;4.88;4.50;;;14.60;61.40;;;;;;4987226;28;20050;-35
2022/12/08 02:19:22;;;;;;;4.82;4.53;;;14.60;61.40;;;;;;4988405;28;20157;-34
2022/12/08 02:21:58;;;;;;;4.88;4.57;;;14.60;61.40;;;;;;4985616;28;20057;-34
2022/12/08 02:24:37;;;;;;;5.43;4.97;;;14.60;61.40;;;;;;4985845;28;20072;-23
2022/12/08 02:27:23;;;;;;;4.97;4.68;;;14.60;61.30;;;;;;4987606;28;20078;-34
2022/12/08 02:30:04;;;;;;;4.80;4.50;;;14.50;61.30;;;;;;4985819;28;20562;-32
2022/12/08 02:32:42;;;;;;;4.97;4.57;;;14.60;61.30;;;;;;4987314;28;20085;-34
2022/12/08 02:35:13;;;;;;;4.35;4.07;;;14.50;61.20;;;;;;4982075;28;20518;-38
2022/12/08 02:37:42;;;;;;;5.00;4.60;;;14.60;61.20;;;;;;4983543;28;20065;-32
2022/12/08 02:40:17;;;;;;;4.75;4.35;;;14.50;61.20;;;;;;4983085;28;20515;-33
2022/12/08 02:43:02;;;;;;;5.35;4.88;;;14.50;61.30;;;;;;4985266;28;20475;-32
2022/12/08 02:45:33;;;;;;;5.43;5.03;;;14.50;61.40;;;;;;4985217;28;20041;-37
2022/12/08 02:47:59;;;;;;;4.95;4.57;;;14.50;61.30;;;;;;4999487;28;20093;-34
2022/12/08 02:50:25;;;;;;;4.63;4.32;;;14.50;61.40;;;;;;4983033;28;20038;-35
2022/12/08 02:52:51;;;;;;;4.40;4.10;;;14.50;61.30;;;;;;4986150;28;20539;-36
2022/12/08 02:55:29;;;;;;;4.75;4.45;;;14.50;61.40;;;;;;4986675;28;20038;-31
2022/12/08 02:58:08;;;;;;;5.10;4.70;;;14.50;61.30;;;;;;4982285;28;20042;-36
2022/12/08 03:00:51;;;;;;;4.80;4.50;;;14.50;61.30;;;;;;4967897;28;20101;-31
2022/12/08 03:03:24;;;;;;;4.82;4.30;;;14.50;61.40;;;;;;4984753;28;20034;-31
2022/12/08 03:05:50;;;;;;;4.30;3.90;;;14.50;61.30;;;;;;4971400;28;20161;-32
2022/12/08 03:08:21;;;;;;;4.60;4.30;;;14.50;61.30;;;;;;4987449;28;20129;-33
2022/12/08 03:11:10;;;;;;;5.47;5.03;;;14.50;61.40;;;;;;4986399;28;20050;-35
2022/12/08 03:13:56;;;;;;;4.32;4.03;;;14.50;61.30;;;;;;4982137;28;20112;-35
2022/12/08 03:16:24;;;;;;;4.13;3.83;;;14.40;61.40;;;;;;4963694;28;20042;-32
2022/12/08 03:18:59;;;;;;;4.57;4.28;;;14.40;61.40;;;;;;4986641;28;20514;-33
2022/12/08 03:21:25;;;;;;;4.65;4.30;;;14.50;61.40;;;;;;4993561;28;20038;-32
2022/12/08 03:23:51;;;;;;;4.38;4.07;;;14.40;61.40;;;;;;4981273;28;20061;-31
2022/12/08 03:26:37;;;;;;;3.88;3.67;;;14.40;61.40;;;;;;4986878;28;20057;-34
2022/12/08 03:29:03;;;;;;;4.07;3.78;;;14.50;61.40;;;;;;4985755;28;20046;-35
2022/12/08 03:31:30;;;;;;;3.95;3.75;;;14.40;61.50;;;;;;4985038;28;20087;-35
2022/12/08 03:33:55;;;;;;;3.80;3.60;;;14.40;61.50;;;;;;4986903;28;20522;-30
2022/12/08 03:36:21;;;;;;;4.13;3.92;;;14.40;61.30;;;;;;4996920;28;20189;-35
2022/12/08 03:38:49;;;;;;;4.13;3.90;;;14.40;61.40;;;;;;4983034;28;21963;-35
2022/12/08 03:41:17;;;;;;;4.22;4.03;;;14.40;61.30;;;;;;4995732;28;20405;-33
2022/12/08 03:43:44;;;;;;;4.28;4.00;;;14.40;61.30;;;;;;4984609;28;20069;-36
2022/12/08 03:46:10;;;;;;;4.32;4.07;;;14.40;61.30;;;;;;4984915;28;20049;-32
2022/12/08 03:48:35;;;;;;;4.13;3.92;;;14.40;61.30;;;;;;4984485;28;20042;-34
2022/12/08 03:51:01;;;;;;;4.35;4.15;;;14.40;61.40;;;;;;4986791;28;20141;-34
2022/12/08 03:53:26;;;;;;;4.65;4.35;;;14.40;61.40;;;;;;4986997;28;20046;-32
2022/12/08 03:55:53;;;;;;;4.10;3.90;;;14.40;62.20;;;;;;4983297;28;20182;-33
2022/12/08 03:58:18;;;;;;;4.28;3.97;;;14.40;61.30;;;;;;4987050;28;20070;-35
2022/12/08 04:00:44;;;;;;;4.65;4.35;;;14.40;61.30;;;;;;4987053;28;20078;-35
2022/12/08 04:03:09;;;;;;;4.60;4.20;;;14.40;61.30;;;;;;4986179;28;20495;-34
2022/12/08 04:05:35;;;;;;;4.10;3.80;;;14.40;61.50;;;;;;4985260;28;20073;-30
2022/12/08 04:08:00;;;;;;;3.40;3.20;;;14.40;61.40;;;;;;4987118;28;20046;-34
2022/12/08 04:10:26;;;;;;;4.07;3.80;;;14.40;61.40;;;;;;4987074;28;20129;-35
2022/12/08 04:12:52;;;;;;;3.85;3.60;;;14.40;61.30;;;;;;4986264;28;20069;-32
2022/12/08 04:15:17;;;;;;;3.63;3.42;;;14.40;61.40;;;;;;4985453;28;20058;-39
2022/12/08 04:17:43;;;;;;;4.00;3.80;;;14.40;61.20;;;;;;4987669;28;20077;-39
2022/12/08 04:20:09;;;;;;;4.20;4.00;;;14.30;61.30;;;;;;4983608;28;20098;-32
2022/12/08 04:22:34;;;;;;;3.60;3.40;;;14.40;61.30;;;;;;4986718;28;20034;-36
2022/12/08 04:25:00;;;;;;;3.08;2.88;;;14.40;61.50;;;;;;4985894;28;20088;-32
2022/12/08 04:27:26;;;;;;;3.60;3.40;;;14.40;61.30;;;;;;5001654;28;20034;-34
2022/12/08 04:29:51;;;;;;;3.63;3.42;;;14.30;61.40;;;;;;4986409;28;20057;-32
2022/12/08 04:32:17;;;;;;;3.25;3.05;;;14.30;61.50;;;;;;4983235;28;20042;-31
2022/12/08 04:34:42;;;;;;;3.58;3.28;;;14.40;61.50;;;;;;4988588;28;20520;-35
2022/12/08 04:37:08;;;;;;;3.40;3.20;;;14.40;61.40;;;;;;4986156;28;20054;-33
2022/12/08 04:39:33;;;;;;;3.25;3.05;;;14.40;61.20;;;;;;4989812;28;20041;-33
2022/12/08 04:41:59;;;;;;;3.42;3.22;;;14.40;61.40;;;;;;4987115;28;20162;-32
2022/12/08 04:44:25;;;;;;;3.30;3.10;;;14.40;61.40;;;;;;4992258;28;20091;-31
2022/12/08 04:46:50;;;;;;;3.50;3.30;;;14.40;61.40;;;;;;4989252;28;20389;-35
2022/12/08 04:49:16;;;;;;;3.42;3.22;;;14.30;61.30;;;;;;4987157;28;20129;-35
2022/12/08 04:51:41;;;;;;;3.50;3.30;;;14.30;61.50;;;;;;4988393;28;20054;-36
2022/12/08 04:54:07;;;;;;;3.55;3.35;;;14.30;61.50;;;;;;4989716;28;20057;-36
2022/12/08 04:56:32;;;;;;;4.40;4.10;;;14.30;61.40;;;;;;5000681;28;20407;-34
2022/12/08 04:58:58;;;;;;;3.63;3.42;;;14.30;61.10;;;;;;4989263;28;20050;-35
2022/12/08 05:01:24;;;;;;;3.20;3.00;;;14.30;61.70;;;;;;4987649;28;20089;-33
2022/12/08 05:03:49;;;;;;;3.47;3.25;;;14.30;61.60;;;;;;4986586;28;20037;-35
2022/12/08 05:06:15;;;;;;;3.53;3.33;;;14.30;61.40;;;;;;4989144;28;20058;-31
2022/12/08 05:08:41;;;;;;;3.50;3.30;;;14.30;61.40;;;;;;4987842;28;20041;-39
2022/12/08 05:11:07;;;;;;;3.50;3.30;;;14.30;61.40;;;;;;4986141;28;20501;-32
2022/12/08 05:13:33;;;;;;;3.40;3.20;;;14.30;61.40;;;;;;4987557;28;20038;-35
2022/12/08 05:16:06;;;;;;;3.40;3.20;;;14.30;61.40;;;;;;4987783;28;20050;-36
2022/12/08 05:18:32;;;;;;;3.03;2.90;;;14.30;61.40;;;;;;4985632;28;20042;-36
2022/12/08 05:20:58;;;;;;;3.53;3.33;;;14.30;61.40;;;;;;4989913;28;20061;-33
2022/12/08 05:23:23;;;;;;;3.13;2.92;;;14.30;61.40;;;;;;4988521;28;20065;-31
2022/12/08 05:25:49;;;;;;;3.13;3.00;;;14.30;61.30;;;;;;4985832;28;20106;-33
2022/12/08 05:28:14;;;;;;;3.40;3.20;;;14.30;61.30;;;;;;4983662;28;20118;-31
2022/12/08 05:30:40;;;;;;;3.20;3.00;;;14.30;61.40;;;;;;4988126;28;20026;-31
2022/12/08 05:33:05;;;;;;;3.00;2.80;;;14.30;61.30;;;;;;4988679;28;20613;-31
2022/12/08 05:35:31;;;;;;;3.20;3.00;;;14.30;61.40;;;;;;4989146;28;20049;-32
2022/12/08 05:37:57;;;;;;;3.30;3.10;;;14.30;61.50;;;;;;4987089;28;20488;-33
2022/12/08 05:40:22;;;;;;;2.95;2.75;;;14.20;61.60;;;;;;4983582;28;20097;-34
2022/12/08 05:42:48;;;;;;;2.88;2.78;;;14.20;61.40;;;;;;4987250;28;20042;-32
2022/12/08 05:45:13;;;;;;;3.45;3.25;;;14.30;61.60;;;;;;4987060;28;20128;-34
2022/12/08 05:47:39;;;;;;;3.33;3.13;;;14.30;61.40;;;;;;4988378;28;20058;-35
2022/12/08 05:50:05;;;;;;;3.17;2.97;;;14.20;61.50;;;;;;4988897;28;20043;-34
2022/12/08 05:52:31;;;;;;;3.25;3.05;;;14.20;61.60;;;;;;4987813;28;20042;-32
2022/12/08 05:54:56;;;;;;;3.20;3.00;;;14.20;61.60;;;;;;4985432;28;20050;-31
2022/12/08 05:57:22;;;;;;;3.50;3.30;;;14.20;61.60;;;;;;4988542;28;20042;-32
2022/12/08 05:59:48;;;;;;;3.80;3.58;;;14.20;61.70;;;;;;4987463;28;20201;-31
2022/12/08 06:02:13;;;;;;;3.63;3.42;;;14.20;61.50;;;;;;4988757;28;20514;-31
2022/12/08 06:04:39;;;;;;;3.17;2.97;;;14.20;61.60;;;;;;4986103;28;20054;-32
2022/12/08 06:07:04;;;;;;;3.38;3.17;;;14.30;61.40;;;;;;4987456;28;20057;-31
2022/12/08 06:09:30;;;;;;;3.05;2.85;;;14.30;61.30;;;;;;5000650;28;20065;-32
2022/12/08 06:11:56;;;;;;;3.28;3.08;;;14.30;61.20;;;;;;4985994;28;20039;-34
2022/12/08 06:14:21;;;;;;;3.08;2.88;;;14.30;61.30;;;;;;4988867;28;20050;-33
2022/12/08 06:16:47;;;;;;;3.28;3.08;;;14.30;61.20;;;;;;4986999;28;20640;-33
2022/12/08 06:19:12;;;;;;;3.45;3.25;;;14.20;61.50;;;;;;4988635;28;20038;-34
2022/12/08 06:21:38;;;;;;;3.00;2.90;;;14.20;61.50;;;;;;4987171;28;20065;-30
2022/12/08 06:24:04;;;;;;;3.35;3.15;;;14.20;61.40;;;;;;4987909;28;20144;-33
2022/12/08 06:26:29;;;;;;;3.10;2.90;;;14.10;61.60;;;;;;4985912;28;20046;-32
2022/12/08 06:28:55;;;;;;;2.80;2.70;;;14.20;61.70;;;;;;4985789;28;20403;-34
2022/12/08 06:31:24;;;;;;;2.97;2.85;;;14.20;61.40;;;;;;4985540;28;20042;-34
2022/12/08 06:33:50;;;;;;;3.08;2.90;;;14.20;61.30;;;;;;4985836;28;20073;-37
2022/12/08 06:36:16;;;;;;;2.85;2.75;;;14.10;61.60;;;;;;4987032;28;20131;-32
2022/12/08 06:38:42;;;;;;;3.90;3.70;;;14.10;61.50;;;;;;4985597;28;20153;-37
2022/12/08 06:41:08;;;;;;;3.38;3.17;;;14.10;61.50;;;;;;4985881;28;20416;-36
2022/12/08 06:43:33;;;;;;;3.40;3.20;;;14.10;61.50;;;;;;4986632;28;20039;-35
2022/12/08 06:46:00;;;;;;;2.67;2.58;;;14.20;61.60;;;;;;4986329;28;20054;-35
2022/12/08 06:48:25;;;;;;;2.88;2.78;;;14.10;61.40;;;;;;4987049;28;20121;-35
2022/12/08 06:50:51;;;;;;;3.17;3.05;;;14.10;61.30;;;;;;4987915;28;20129;-17
2022/12/08 06:53:17;;;;;;;3.20;3.00;;;14.10;61.50;;;;;;4988133;28;20392;-19
2022/12/08 06:55:47;;;;;;;3.40;3.20;;;14.10;61.50;;;;;;4987406;28;20053;-17
2022/12/08 06:58:12;;;;;;;2.70;2.60;;;14.10;61.40;;;;;;4984527;28;20053;-17
2022/12/08 07:00:39;;;;;;;3.42;3.22;;;14.20;61.20;;;;;;4987753;28;20042;-17
2022/12/08 07:03:06;;;;;;;3.17;3.03;;;14.10;61.10;;;;;;4986878;28;20129;-17
2022/12/08 07:05:32;;;;;;;3.33;3.13;;;14.10;61.30;;;;;;4988147;28;20050;-17
2022/12/08 07:07:57;;;;;;;3.05;2.85;;;14.10;61.20;;;;;;4987059;28;20049;-16
2022/12/08 07:10:23;;;;;;;3.15;2.95;;;14.10;61.30;;;;;;4987883;28;20062;-17
2022/12/08 07:12:48;;;;;;;3.20;3.00;;;14.10;61.20;;;;;;4986060;28;20105;-17
2022/12/08 07:15:15;;;;;;;2.97;2.85;;;14.10;61.10;;;;;;4988013;28;20042;-16
2022/12/08 07:17:40;;;;;;;2.92;2.83;;;14.10;61.10;;;;;;4988375;28;20022;-17
2022/12/08 07:20:06;;;;;;;3.42;3.22;;;14.10;61.30;;;;;;4987238;28;20072;-17
2022/12/08 07:22:32;;;;;;;3.40;3.20;;;14.20;60.70;;;;;;4982544;28;20034;-17
2022/12/08 07:24:57;;;;;;;3.17;2.97;;;14.20;60.90;;;;;;4634493;28;10000330;-17
2022/12/08 07:27:23;;;;;;;3.00;2.90;;;14.20;61.30;;;;;;4987277;28;20038;-20
2022/12/08 07:29:49;;;;;;;3.30;3.10;;;14.20;61.30;;;;;;4987189;28;20038;-17
2022/12/08 07:32:14;;;;;;;3.47;3.28;;;14.10;61.30;;;;;;4978968;28;20081;-17
2022/12/08 07:34:40;;;;;;;3.55;3.30;;;14.10;61.50;;;;;;4982022;28;20039;-16
2022/12/08 07:37:05;;;;;;;3.75;2.90;;;14.10;61.50;;;;;;4983425;28;20096;-17
2022/12/08 07:39:31;;;;;;;3.40;3.20;;;14.10;61.50;;;;;;4986992;28;20488;-17
2022/12/08 07:41:56;;;;;;;3.22;3.03;;;14.20;61.40;;;;;;4987568;28;20050;-16
2022/12/08 07:44:22;;;;;;;3.25;3.05;;;14.10;61.40;;;;;;4986573;28;20578;-17
2022/12/08 07:46:48;;;;;;;3.55;3.35;;;14.20;61.40;;;;;;4986789;28;20046;-17
2022/12/08 07:49:14;;;;;;;3.60;3.40;;;14.10;61.40;;;;;;4986546;28;20038;-17
2022/12/08 07:51:39;;;;;;;3.80;3.50;;;14.20;61.40;;;;;;4982797;28;21893;-17
2022/12/08 07:54:05;;;;;;;3.08;2.88;;;14.20;61.30;;;;;;4987317;28;20137;-17
2022/12/08 07:56:30;;;;;;;3.83;3.53;;;14.10;61.60;;;;;;4987617;28;20078;-17
2022/12/08 07:58:56;;;;;;;3.20;3.00;;;14.10;61.90;;;;;;4986649;28;20038;-17
2022/12/08 08:01:27;;;;;;;5.05;3.13;;;14.10;61.60;;;;;;4987629;28;20069;-16
2022/12/08 08:03:53;;;;;;;3.53;3.33;;;14.20;61.60;;;;;;4986233;28;20050;-17
2022/12/08 08:06:19;;;;;;;3.50;3.25;;;14.20;61.40;;;;;;4987055;28;20050;-24
2022/12/08 08:08:45;;;;;;;3.25;3.05;;;14.20;61.30;;;;;;4989104;28;20081;-17
2022/12/08 08:11:10;;;;;;;3.80;3.60;;;14.30;61.30;;;;;;4990825;28;20038;-17
2022/12/08 08:13:36;;;;;;;3.17;2.97;;;14.30;61.30;;;;;;4991387;28;20042;-19
2022/12/08 08:16:04;;;;;;;3.28;3.08;;;14.10;61.50;;;;;;4990650;28;20047;-17
2022/12/08 08:18:29;;;;;;;3.75;3.15;;;14.10;61.50;;;;;;4990934;28;20035;-17
2022/12/08 08:20:55;;;;;;;3.90;3.38;;;14.10;61.40;;;;;;4990886;28;20047;-17
2022/12/08 08:23:20;;;;;;;3.40;3.20;;;14.10;61.50;;;;;;4990853;28;20030;-26
2022/12/08 08:25:46;;;;;;;3.30;3.10;;;14.10;61.30;;;;;;4990560;28;20488;-17
2022/12/08 08:28:11;;;;;;;3.70;3.50;;;14.10;61.30;;;;;;4991078;28;20125;-17
2022/12/08 08:30:37;;;;;;;3.15;2.97;;;14.10;61.40;;;;;;4990786;28;20603;-17
2022/12/08 08:33:03;;;;;;;3.58;3.38;;;14.10;61.30;;;;;;4991185;28;20046;-17
2022/12/08 08:35:29;;;;;;;3.78;3.58;;;14.10;61.20;;;;;;4990390;28;20038;-18
2022/12/08 08:37:55;;;;;;;3.40;3.20;;;14.10;61.40;;;;;;4990340;28;20042;-17
2022/12/08 08:40:20;;;;;;;3.95;3.55;;;14.10;61.30;;;;;;4990806;28;20506;-17
2022/12/08 08:42:46;;;;;;;3.92;3.72;;;14.10;61.40;;;;;;4990713;28;20042;-18
2022/12/08 08:45:12;;;;;;;3.33;3.13;;;14.00;61.40;;;;;;4989968;28;20042;-17
2022/12/08 08:47:37;;;;;;;3.25;3.08;;;14.00;61.50;;;;;;4990918;28;20046;-17
2022/12/08 08:50:03;;;;;;;3.28;3.08;;;14.00;61.50;;;;;;4990262;28;20047;-17
2022/12/08 08:52:29;;;;;;;3.33;3.13;;;14.00;61.40;;;;;;4990687;28;20138;-17
2022/12/08 08:54:54;;;;;;;3.78;3.53;;;14.00;61.50;;;;;;4987830;28;20037;-17
2022/12/08 08:57:20;;;;;;;3.38;3.17;;;14.00;61.50;;;;;;4991380;28;20053;-17
2022/12/08 08:59:45;;;;;;;3.50;3.30;;;14.00;61.50;;;;;;4990644;28;20108;-17
2022/12/08 09:02:15;;;;;;;3.70;3.50;;;14.00;61.40;;;;;;4989185;28;20050;-18
2022/12/08 09:04:41;;;;;;;3.60;3.30;;;14.00;61.30;;;;;;4990781;28;20133;-17
2022/12/08 09:07:07;;;;;;;3.55;3.35;;;14.00;61.30;;;;;;4989390;28;21788;-22
2022/12/08 09:09:32;;;;;;;3.20;3.00;;;14.10;61.30;;;;;;4990317;28;20169;-17
2022/12/08 09:11:58;;;;;;;3.58;3.38;;;14.10;61.10;;;;;;4989653;28;20060;-17
2022/12/08 09:14:24;;;;;;;3.70;3.50;;;14.10;61.20;;;;;;4990497;28;20092;-19
2022/12/08 09:16:49;;;;;;;3.15;2.95;;;14.10;61.10;;;;;;4988841;28;20046;-17
2022/12/08 09:19:15;;;;;;;2.85;2.70;;;14.10;61.10;;;;;;4988765;28;20112;-17
2022/12/08 09:21:41;;;;;;;3.00;2.80;;;14.00;61.00;;;;;;4989293;28;20042;-16
2022/12/08 09:24:09;;;;;;;3.35;3.15;;;14.10;61.10;;;;;;4990358;28;20149;-17
2022/12/08 09:26:34;;;;;;;2.97;2.88;;;14.10;61.10;;;;;;4989828;28;20026;-17
2022/12/08 09:29:00;;;;;;;3.22;3.05;;;14.10;61.10;;;;;;4989551;28;20139;-17
2022/12/08 09:31:26;;;;;;;2.72;2.63;;;14.10;61.00;;;;;;4989198;28;20047;-17
2022/12/08 09:33:51;;;;;;;3.30;3.10;;;14.10;60.90;;;;;;4989436;28;20643;-17
2022/12/08 09:36:17;;;;;;;2.72;2.63;;;14.00;61.00;;;;;;4989732;28;20151;-17
2022/12/08 09:38:43;;;;;;;3.03;2.83;;;14.10;61.10;;;;;;4989579;28;20076;-17
2022/12/08 09:41:32;;;;;;;3.20;3.00;;;14.10;60.90;;;;;;4989289;28;20092;-17
2022/12/08 09:44:28;;;;;;;3.28;3.08;;;14.10;61.00;;;;;;4987485;28;20042;-17
2022/12/08 09:46:54;;;;;;;2.92;2.83;;;14.10;60.70;;;;;;4988138;28;20034;-17
2022/12/08 09:49:22;;;;;;;2.72;2.63;;;14.10;60.80;;;;;;4989803;28;20043;-16
2022/12/08 09:51:48;;;;;;;2.60;2.50;;;14.00;60.90;;;;;;4988116;28;20144;-17
2022/12/08 09:54:21;;;;;;;2.83;2.65;;;14.00;61.00;;;;;;4988436;28;20137;-17
2022/12/08 09:56:47;;;;;;;2.90;2.70;;;14.00;61.00;;;;;;4987505;28;20508;-20
2022/12/08 09:59:26;;;;;;;2.78;2.67;;;14.10;60.90;;;;;;4987655;28;20046;-17
2022/12/08 10:01:51;;;;;;;2.53;2.42;;;14.10;60.90;;;;;;4985932;28;20129;-17
2022/12/08 10:04:25;;;;;;;3.40;3.20;;;14.10;60.90;;;;;;5002482;28;20154;-16
2022/12/08 10:07:11;;;;;;;3.30;2.90;;;14.10;60.90;;;;;;4987196;28;20068;-17
2022/12/08 10:09:56;;;;;;;2.67;2.55;;;14.10;60.80;;;;;;4987208;28;20042;-16
2022/12/08 10:13:02;;;;;;;2.90;2.70;;;14.00;60.90;;;;;;4986669;28;20050;-17
2022/12/08 10:15:46;;;;;;;2.38;2.28;;;14.00;60.80;;;;;;4987987;28;20042;-16
2022/12/08 10:18:17;;;;;;;2.60;2.50;;;14.00;60.80;;;;;;4987981;28;20050;-20
2022/12/08 10:20:44;;;;;;;2.60;2.42;;;14.00;60.80;;;;;;4989116;28;20031;-16
2022/12/08 10:23:16;;;;;;;2.75;2.55;;;14.00;60.90;;;;;;4988492;28;20030;-17
2022/12/08 10:25:47;;;;;;;2.78;2.67;;;14.10;60.70;;;;;;4986344;28;20045;-22
2022/12/08 10:28:13;;;;;;;2.50;2.40;;;14.10;60.70;;;;;;4988176;28;20503;-17
2022/12/08 10:30:39;;;;;;;2.28;2.17;;;14.10;60.60;;;;;;4989570;28;20118;-17
2022/12/08 10:33:04;;;;;;;2.30;2.20;;;14.10;60.50;;;;;;4987694;28;20049;-17
2022/12/08 10:35:46;;;;;;;2.55;2.45;;;14.10;60.50;;;;;;4987311;28;20471;-17
2022/12/08 10:38:22;;;;;;;2.45;2.35;;;14.10;60.70;;;;;;4984454;28;20038;-17
2022/12/08 10:40:49;;;;;;;2.40;2.30;;;14.10;60.60;;;;;;4987460;28;20042;-17
2022/12/08 10:43:21;;;;;;;3.05;2.50;;;14.10;60.50;;;;;;4986655;28;20043;-17
2022/12/08 10:45:46;;;;;;;2.13;2.03;;;14.10;60.40;;;;;;4987248;28;20050;-17
2022/12/08 10:48:30;;;;;;;2.10;2.00;;;14.10;60.70;;;;;;4988017;28;20050;-23
2022/12/08 10:50:56;;;;;;;2.03;1.92;;;14.10;60.50;;;;;;4984424;28;20053;-22
2022/12/08 10:53:26;;;;;;;2.40;2.30;;;14.10;60.50;;;;;;4988758;28;20092;-17
2022/12/08 10:56:02;;;;;;;2.60;2.40;;;14.20;60.40;;;;;;4988367;28;20133;-17
2022/12/08 10:58:39;;;;;;;2.20;2.10;;;14.10;60.40;;;;;;4987911;28;20041;-24
2022/12/08 11:01:20;;;;;;;2.20;2.10;;;14.10;60.40;;;;;;4986813;28;20077;-17
2022/12/08 11:03:54;;;;;;;2.63;2.42;;;14.10;60.40;;;;;;4985012;28;20037;-17
2022/12/08 11:06:34;;;;;;;1.80;1.70;;;14.10;60.50;;;;;;4986524;28;20030;-17
2022/12/08 11:09:05;;;;;;;2.03;1.92;;;14.10;60.30;;;;;;4986338;28;20359;-17
2022/12/08 11:11:49;;;;;;;2.15;2.05;;;14.10;60.60;;;;;;4987135;28;20049;-17
2022/12/08 11:14:21;;;;;;;2.38;2.28;;;14.10;60.50;;;;;;4987156;28;20053;-17
2022/12/08 11:16:47;;;;;;;2.50;2.40;;;14.00;60.60;;;;;;4988158;28;20046;-17
2022/12/08 11:19:17;;;;;;;2.10;2.00;;;14.10;60.40;;;;;;4986731;28;20447;-17
2022/12/08 11:21:42;;;;;;;2.17;2.08;;;14.10;60.40;;;;;;5019561;28;20065;-17
2022/12/08 11:24:14;;;;;;;2.33;2.22;;;14.10;60.40;;;;;;4987027;28;20074;-17
2022/12/08 11:26:43;;;;;;;2.30;2.20;;;14.10;60.50;;;;;;4986652;28;20042;-17
2022/12/08 11:29:10;;;;;;;2.72;2.45;;;14.10;60.40;;;;;;4968579;28;20043;-16
2022/12/08 11:31:45;;;;;;;2.28;2.17;;;14.10;60.30;;;;;;4988146;28;20080;-17
2022/12/08 11:34:17;;;;;;;2.20;2.10;;;14.10;60.30;;;;;;4987255;28;20042;-17
2022/12/08 11:36:42;;;;;;;1.92;1.83;;;14.10;60.30;;;;;;4985009;28;20193;-17
2022/12/08 11:39:08;;;;;;;2.20;2.10;;;14.10;60.40;;;;;;4986304;28;20554;-17
2022/12/08 11:41:36;;;;;;;1.85;1.75;;;14.10;60.40;;;;;;4985587;28;20065;-17
2022/12/08 11:44:27;;;;;;;2.55;2.35;;;14.10;60.20;;;;;;4988298;28;20050;-17
2022/12/08 11:47:09;;;;;;;2.00;1.90;;;14.10;60.30;;;;;;4990094;28;20112;-21
2022/12/08 11:49:39;;;;;;;2.10;2.00;;;14.10;60.20;;;;;;5019458;28;20038;-17
2022/12/08 11:52:10;;;;;;;1.80;1.70;;;14.10;60.30;;;;;;5019000;28;20125;-19
2022/12/08 11:54:41;;;;;;;2.10;2.00;;;14.10;60.30;;;;;;4989858;28;20100;-18
2022/12/08 11:57:10;;;;;;;2.65;2.55;;;14.10;60.40;;;;;;4990025;28;20134;-17
2022/12/08 11:59:38;;;;;;;2.22;2.13;;;14.10;60.30;;;;;;4990308;28;20484;-17
2022/12/08 12:02:04;;;;;;;2.00;1.90;;;14.10;60.20;;;;;;5019487;28;20050;-17
2022/12/08 12:04:37;;;;;;;1.85;1.75;;;14.10;60.30;;;;;;4990687;28;20038;-17
2022/12/08 12:07:29;;;;;;;2.20;2.10;;;14.10;60.30;;;;;;4990486;28;20113;-17
2022/12/08 12:10:13;;;;;;;2.10;2.00;;;14.10;60.30;;;;;;4990329;28;20041;-17
2022/12/08 12:12:54;;;;;;;1.90;1.80;;;14.10;60.20;;;;;;4991238;28;20035;-17
2022/12/08 12:15:22;;;;;;;2.13;2.03;;;14.10;60.30;;;;;;4989813;28;20500;-20
2022/12/08 12:17:50;;;;;;;1.95;1.85;;;14.10;60.20;;;;;;4990507;28;20129;-17
2022/12/08 12:20:25;;;;;;;1.90;1.80;;;14.20;60.10;;;;;;4991075;28;20042;-17
2022/12/08 12:22:55;;;;;;;2.15;2.05;;;14.10;60.10;;;;;;4989925;28;20125;-17
2022/12/08 12:25:22;;;;;;;1.90;1.80;;;14.10;60.30;;;;;;5002317;28;20507;-17
2022/12/08 12:27:49;;;;;;;2.50;1.80;;;14.10;60.20;;;;;;4991390;28;20058;-17
2022/12/08 12:30:25;;;;;;;2.10;2.00;;;14.10;60.30;;;;;;5017084;28;20043;-17
2022/12/08 12:32:57;;;;;;;2.13;2.03;;;14.10;60.10;;;;;;4988977;28;20499;-17
2022/12/08 12:35:36;;;;;;;1.88;1.77;;;14.10;60.20;;;;;;4986481;28;20166;-17
2022/12/08 12:41:07;;;;;;;2.10;2.00;;;14.20;60.20;;;;;;4989288;28;20141;-17
2022/12/08 12:43:34;;;;;;;2.30;2.20;;;14.10;60.20;;;;;;4987833;28;20133;-17
2022/12/08 12:46:23;;;;;;;1.85;1.75;;;14.10;60.10;;;;;;4989605;28;20678;-17
2022/12/08 12:48:52;;;;;;;2.03;1.92;;;14.10;60.20;;;;;;4948248;28;20037;-17
2022/12/08 12:51:45;;;;;;;1.75;1.65;;;14.10;60.10;;;;;;4965188;28;20047;-17
2022/12/08 12:54:21;;;;;;;2.03;1.92;;;14.10;60.30;;;;;;4965103;28;20094;-17
2022/12/08 12:56:53;;;;;;;1.90;1.80;;;14.10;60.10;;;;;;4948400;28;20182;-17
2022/12/08 12:59:28;;;;;;;1.90;1.80;;;14.10;60.10;;;;;;4978485;28;20513;-17